Latest Weather Observations for Gladstone

IDQ60801

Issued at 2:02 pm EST Friday 29 May 2015 (issued every 30 minutes, with the page automatically refreshed every 10 minutes)

About weather observations | Map of weather stations | Latest weather observations for QLD | Other Formats
Station Details ID: 039123 Name: GLADSTONE RADAR Lat: -23.86 Lon: 151.26 Height: 74.5 m
Data from the previous 72 hours. | See also: Recent months at Gladstone
Date/Time
EST
Temp
°C
App
Temp
°C
Dew
Point
Rel
Hum
%
Delta-T
°C
Wind Press
QNH
hPa
Press
MSL
hPa
Rain
since 9 am
mm
Dir
 
Spd
km/h
Gust
km/h
Spd
kts
Gust
kts
29/02:00pm 26.0 25.7 18.2 62 4.9 ENE 17 22 9 12 1021.2 1020.9 0.0
29/01:30pm 26.5 26.3 18.6 62 5.0 ENE 17 24 9 13 1021.3 1021.0 0.0
29/01:00pm 26.3 26.4 18.4 61 5.0 ENE 15 24 8 13 1021.6 1021.3 0.0
29/12:30pm 26.1 26.2 17.5 59 5.4 ENE 13 24 7 13 1021.9 1021.6 0.0
29/12:00pm 26.2 25.8 18.1 61 5.1 E 17 24 9 13 1022.5 1022.2 0.0
29/11:30am 26.4 26.0 18.0 60 5.3 ENE 17 24 9 13 1022.9 1022.6 0.0
29/11:00am 25.8 27.5 19.4 67 4.1 ESE 9 20 5 11 1023.3 1023.0 0.0
29/10:30am 23.4 23.2 18.5 74 3.1 ESE 17 24 9 13 1023.7 1023.4 0.0
29/10:00am 22.7 23.0 18.0 75 2.9 ESE 13 19 7 10 1024.0 1023.7 0.0
29/09:30am 21.9 22.4 18.3 80 2.3 SE 13 22 7 12 1024.1 1023.8 0.0
29/09:00am 21.5 22.3 18.1 81 2.1 SE 11 17 6 9 1024.2 1023.9 0.0
29/08:30am 20.8 21.9 18.0 84 1.7 S 9 13 5 7 1024.1 1023.8 0.0
29/08:00am 19.7 20.7 17.8 89 1.2 S 9 15 5 8 1023.9 1023.6 0.0
29/07:30am 19.0 19.8 17.3 90 1.0 S 9 17 5 9 1023.6 1023.3 0.0
29/07:00am 18.5 19.1 16.8 90 1.0 S 9 15 5 8 1023.3 1023.0 0.0
29/06:30am 18.8 19.5 17.1 90 1.0 S 9 13 5 7 1022.9 1022.6 0.0
29/06:00am 18.9 20.0 17.0 89 1.1 S 7 15 4 8 1022.7 1022.4 0.0
29/05:30am 19.2 18.9 17.3 89 1.2 SSE 15 20 8 11 1022.3 1022.0 0.0
29/05:00am 18.9 19.0 17.4 91 0.9 SSE 13 20 7 11 1022.1 1021.8 0.0
29/04:30am 18.8 18.5 17.3 91 0.9 SSE 15 22 8 12 1022.1 1021.8 0.0
29/04:00am 18.9 18.6 17.4 91 0.9 S 15 20 8 11 1021.8 1021.5 0.0
29/03:30am 18.9 19.0 17.4 91 0.9 SSE 13 17 7 9 1021.9 1021.6 0.0
29/03:00am 18.9 18.6 17.4 91 0.9 S 15 19 8 10 1022.3 1022.0 0.0
29/02:30am 18.9 18.6 17.4 91 0.9 S 15 20 8 11 1022.2 1021.9 0.0
29/02:00am 18.9 18.5 17.2 90 1.0 S 15 19 8 10 1022.3 1022.0 0.0
29/01:30am 19.1 18.7 17.2 89 1.2 SSE 15 20 8 11 1022.4 1022.1 0.0
29/01:00am 19.2 18.4 17.0 87 1.3 SSE 17 24 9 13 1022.6 1022.3 0.0
29/12:30am 19.2 18.7 16.8 86 1.5 SSE 15 22 8 12 1022.7 1022.4 0.0
29/12:00am 19.3 18.7 16.7 85 1.6 SSE 15 20 8 11 1022.8 1022.5 0.0
 
Date/Time
EST
Temp
°C
App
Temp
°C
Dew
Point
Rel
Hum
%
Delta-T
°C
Wind Press
QNH
hPa
Press
MSL
hPa
Rain
since 9 am
mm
Dir
 
Spd
km/h
Gust
km/h
Spd
kts
Gust
kts
28/11:30pm 19.4 18.6 16.2 82 1.9 SSE 15 22 8 12 1023.0 1022.7 0.0
28/11:00pm 19.5 18.2 15.8 79 2.2 SE 17 20 9 11 1023.1 1022.8 0.0
28/10:30pm 19.7 17.9 15.6 77 2.4 SE 19 24 10 13 1023.3 1023.0 0.0
28/10:00pm 19.7 18.3 15.6 77 2.4 SSE 17 22 9 12 1023.5 1023.2 0.0
28/09:30pm 19.4 18.1 15.7 79 2.2 SE 17 22 9 12 1023.4 1023.1 0.0
28/09:00pm 19.6 18.5 16.4 82 1.9 SE 17 22 9 12 1023.2 1022.9 0.0
28/08:30pm 19.8 19.0 17.0 84 1.7 SE 17 22 9 12 1023.1 1022.8 0.0
28/08:00pm 20.1 20.4 17.9 87 1.4 ESE 13 22 7 12 1023.1 1022.8 0.0
28/07:30pm 20.2 19.9 17.4 84 1.7 ESE 15 24 8 13 1022.6 1022.3 0.0
28/07:00pm 20.3 19.9 17.1 82 1.9 ESE 15 19 8 10 1022.4 1022.1 0.0
28/06:30pm 20.5 19.8 17.3 82 2.0 E 17 26 9 14 1021.9 1021.6 0.0
28/06:00pm 20.6 19.3 17.2 81 2.1 E 20 26 11 14 1021.5 1021.2 0.0
28/05:30pm 20.8 19.6 17.0 79 2.3 E 19 26 10 14 1021.3 1021.0 0.0
28/05:00pm 21.4 20.0 16.6 74 2.9 E 19 28 10 15 1021.2 1020.9 0.0
28/04:30pm 22.4 19.8 16.0 67 3.9 E 24 33 13 18 1021.0 1020.7 0.0
28/04:00pm 23.3 21.5 16.1 64 4.4 ENE 20 28 11 15 1021.0 1020.7 0.0
28/03:30pm 23.7 22.3 16.5 64 4.4 E 19 26 10 14 1020.9 1020.6 0.0
28/03:00pm 23.7 22.5 16.2 63 4.6 ENE 17 28 9 15 1021.1 1020.8 0.0
28/02:30pm 25.1 23.7 16.5 59 5.3 ENE 19 28 10 15 1020.9 1020.6 0.0
28/02:00pm 25.2 23.6 16.6 59 5.3 ENE 20 26 11 14 1021.0 1020.7 0.0
28/01:30pm 25.4 24.1 17.3 61 5.1 ENE 20 28 11 15 1021.2 1020.9 0.0
28/01:00pm 25.8 24.9 16.9 58 5.5 ENE 17 24 9 13 1021.4 1021.1 0.0
28/12:30pm 25.7 24.1 16.0 55 5.9 ENE 19 28 10 15 1021.8 1021.5 0.0
28/12:00pm 26.1 24.7 16.6 55 5.9 E 19 28 10 15 1022.4 1022.1 0.0
28/11:30am 25.5 24.1 16.6 58 5.5 E 19 24 10 13 1022.7 1022.4 0.0
28/11:00am 26.1 25.7 17.2 58 5.5 E 15 24 8 13 1022.9 1022.6 0.0
28/10:30am 24.8 23.8 16.5 60 5.1 ESE 17 26 9 14 1023.1 1022.8 0.0
28/10:00am 24.3 24.4 17.5 66 4.2 ESE 13 20 7 11 1023.4 1023.1 0.0
28/09:30am 22.8 22.3 17.0 70 3.6 ESE 15 24 8 13 1023.6 1023.3 0.0
28/09:00am 21.9 21.8 17.9 78 2.5 SE 15 20 8 11 1023.3 1023.0 0.0
28/08:30am 20.8 20.4 17.2 80 2.2 SE 15 22 8 12 1023.1 1022.8 0.0
28/08:00am 20.2 20.3 17.4 84 1.7 SSE 13 20 7 11 1023.0 1022.7 0.0
28/07:30am 19.0 19.5 17.5 91 0.9 SSE 11 17 6 9 1022.7 1022.4 0.0
28/07:00am 17.4 17.5 16.6 95 0.5 SSW 11 17 6 9 1022.6 1022.3 0.0
28/06:30am 16.6 16.8 15.8 95 0.5 WSW 9 11 5 6 1022.2 1021.9 0.0
28/06:00am 17.2 17.8 15.7 91 0.9 WSW 7 11 4 6 1022.0 1021.7 0.0
28/05:30am 18.2 17.6 16.7 91 0.9 SSE 15 22 8 12 1021.5 1021.2 0.0
28/05:00am 18.3 17.7 16.6 90 1.0 SSE 15 22 8 12 1021.2 1020.9 0.0
28/04:30am 18.5 18.0 16.8 90 1.0 SSE 15 22 8 12 1021.2 1020.9 0.0
28/04:00am 18.5 18.0 17.0 91 0.9 SSE 15 24 8 13 1021.1 1020.8 0.0
28/03:30am 18.4 17.5 16.9 91 0.9 SSE 17 24 9 13 1021.0 1020.7 0.0
28/03:00am 18.4 17.9 16.9 91 0.9 SSE 15 22 8 12 1020.9 1020.6 0.0
28/02:30am 18.4 17.8 16.7 90 1.0 SSE 15 22 8 12 1021.0 1020.7 0.0
28/02:00am 18.7 18.2 16.8 89 1.1 SSE 15 24 8 13 1021.4 1021.1 0.0
28/01:30am 19.0 18.5 17.0 88 1.2 S 15 22 8 12 1021.8 1021.5 0.0
28/01:00am 19.1 18.6 16.9 87 1.3 SSE 15 22 8 12 1021.9 1021.6 0.0
28/12:30am 19.0 17.7 16.8 87 1.3 SSE 19 28 10 15 1022.1 1021.8 0.0
28/12:00am 18.9 17.8 16.3 85 1.6 SSE 17 24 9 13 1021.7 1021.4 0.0
 
Date/Time
EST
Temp
°C
App
Temp
°C
Dew
Point
Rel
Hum
%
Delta-T
°C
Wind Press
QNH
hPa
Press
MSL
hPa
Rain
since 9 am
mm
Dir
 
Spd
km/h
Gust
km/h
Spd
kts
Gust
kts
27/11:30pm 19.0 17.8 16.2 84 1.7 SSE 17 24 9 13 1021.6 1021.3 0.0
27/11:00pm 19.1 17.9 16.0 82 1.8 SE 17 24 9 13 1022.1 1021.8 0.0
27/10:30pm 19.3 18.1 16.2 82 1.9 SSE 17 20 9 11 1022.5 1022.2 0.0
27/10:00pm 19.2 18.3 15.9 81 2.0 SSE 15 20 8 11 1022.3 1022.0 0.0
27/09:30pm 19.2 18.1 16.4 84 1.7 SE 17 22 9 12 1022.0 1021.7 0.0
27/09:00pm 19.3 18.4 16.9 86 1.5 SE 17 22 9 12 1021.9 1021.6 0.0
27/08:30pm 19.6 19.4 17.7 89 1.2 SE 15 22 8 12 1022.2 1021.9 0.0
27/08:00pm 19.8 19.6 17.6 87 1.3 ESE 15 22 8 12 1022.3 1022.0 0.0
27/07:30pm 19.9 19.4 17.7 87 1.4 ESE 17 24 9 13 1022.0 1021.7 0.0
27/07:00pm 20.4 18.5 17.6 84 1.7 E 24 30 13 16 1021.8 1021.5 0.0
27/06:30pm 20.4 18.5 16.8 80 2.2 E 22 30 12 16 1021.6 1021.3 0.0
27/06:00pm 20.4 18.8 16.4 78 2.4 E 20 26 11 14 1021.2 1020.9 0.0
27/05:30pm 20.6 18.7 15.8 74 2.9 E 20 28 11 15 1021.0 1020.7 0.0
27/05:00pm 21.1 19.3 15.4 70 3.4 E 19 26 10 14 1020.7 1020.4 0.0
27/04:30pm 22.2 20.5 16.2 69 3.6 ENE 20 26 11 14 1020.4 1020.1 0.0
27/04:00pm 23.4 22.2 16.2 64 4.4 ENE 17 28 9 15 1020.3 1020.0 0.0
27/03:30pm 23.6 22.0 16.1 62 4.6 ENE 19 24 10 13 1020.7 1020.4 0.0
27/03:00pm 23.7 22.3 15.5 60 4.9 ENE 17 22 9 12 1020.6 1020.3 0.0
27/02:30pm 24.2 22.4 15.9 59 5.0 ENE 20 28 11 15 1020.4 1020.1 0.0
27/02:00pm 24.5 23.1 16.5 61 4.9 ENE 19 28 10 15 1020.6 1020.3 0.0
27/01:30pm 24.9 23.2 15.8 57 5.5 ENE 19 24 10 13 1020.6 1020.3 0.0
27/01:00pm 25.1 23.2 15.1 53 6.0 ENE 19 26 10 14 1021.0 1020.7 0.0
27/12:30pm 25.4 23.3 14.8 52 6.4 ENE 19 28 10 15 1021.5 1021.2 0.0
27/12:00pm 25.3 23.2 15.3 54 6.0 E 20 30 11 16 1022.0 1021.7 0.0
27/11:30am 24.8 22.3 14.0 51 6.4 ESE 20 28 11 15 1022.7 1022.4 0.0
27/11:00am 24.5 22.5 14.0 52 6.2 ESE 17 28 9 15 1023.1 1022.8 0.0
27/10:30am 24.2 23.3 14.9 56 5.6 SE 13 26 7 14 1023.1 1022.8 0.0
27/10:00am 23.2 22.2 15.5 62 4.6 SE 15 22 8 12 1023.6 1023.3 0.0
27/09:30am 22.1 21.5 15.7 67 3.8 SE 13 22 7 12 1023.6 1023.3 0.0
27/09:00am 21.2 20.4 16.2 73 3.0 SE 15 24 8 13 1023.6 1023.3 0.0
27/08:30am 20.5 19.8 16.3 77 2.5 SSE 15 26 8 14 1023.7 1023.4 0.0
27/08:00am 19.3 19.1 15.8 80 2.1 SSE 11 22 6 12 1023.4 1023.1 0.0
27/07:30am 18.2 18.0 15.6 85 1.5 S 11 17 6 9 1023.3 1023.0 0.0
27/07:00am 17.5 17.1 15.3 87 1.3 SSE 11 17 6 9 1022.9 1022.6 0.0
27/06:30am 17.1 16.6 14.9 87 1.3 SSE 11 17 6 9 1022.8 1022.5 0.0
27/06:00am 17.2 16.3 14.8 86 1.4 S 13 19 7 10 1022.5 1022.2 0.0
27/05:30am 17.3 16.4 14.8 85 1.4 S 13 19 7 10 1022.1 1021.8 0.0
27/05:00am 17.3 15.9 14.6 84 1.6 SSE 15 22 8 12 1021.9 1021.6 0.0
27/04:30am 17.2 15.8 14.5 84 1.6 SSE 15 20 8 11 1021.6 1021.3 0.0
27/04:00am 17.4 16.0 14.5 83 1.7 SSE 15 24 8 13 1021.6 1021.3 0.0
27/03:30am 17.5 16.4 14.4 82 1.8 SSE 13 20 7 11 1021.9 1021.6 0.0
27/03:00am 17.6 16.6 14.5 82 1.8 SSE 13 20 7 11 1022.4 1022.1 0.0
27/02:30am 17.6 16.2 14.5 82 1.8 SSE 15 20 8 11 1022.4 1022.1 0.0
27/02:00am 17.7 16.3 14.4 81 1.9 SSE 15 19 8 10 1022.4 1022.1 0.0
27/01:30am 18.0 16.6 14.5 80 2.0 SSE 15 20 8 11 1022.8 1022.5 0.0
27/01:00am 18.0 17.0 14.7 81 1.9 SSE 13 20 7 11 1022.9 1022.6 0.0
27/12:30am 18.0 17.4 14.7 81 1.9 SSE 11 17 6 9 1023.0 1022.7 0.0
27/12:00am 18.3 17.4 14.8 80 2.0 SSE 13 20 7 11 1022.9 1022.6 0.0
 
Date/Time
EST
Temp
°C
App
Temp
°C
Dew
Point
Rel
Hum
%
Delta-T
°C
Wind Press
QNH
hPa
Press
MSL
hPa
Rain
since 9 am
mm
Dir
 
Spd
km/h
Gust
km/h
Spd
kts
Gust
kts
26/11:30pm 18.0 17.0 14.7 81 1.9 SSE 13 20 7 11 1023.2 1022.9 0.0
26/11:00pm 18.3 17.0 14.8 80 2.0 SSE 15 19 8 10 1023.7 1023.4 0.0
26/10:30pm 18.3 17.4 14.8 80 2.0 SSE 13 19 7 10 1023.7 1023.4 0.0
26/10:00pm 18.6 17.3 14.9 79 2.2 SSE 15 20 8 11 1024.0 1023.7 0.0
26/09:30pm 18.8 17.5 14.9 78 2.3 SSE 15 22 8 12 1024.0 1023.7 0.0
26/09:00pm 19.1 17.8 14.8 76 2.5 SSE 15 22 8 12 1024.1 1023.8 0.0
26/08:30pm 19.4 17.7 14.6 74 2.8 SE 17 24 9 13 1024.4 1024.1 0.0
26/08:00pm 19.8 18.1 14.6 72 3.0 SE 17 26 9 14 1024.3 1024.0 0.0
26/07:30pm 20.2 18.3 15.2 73 3.0 SE 19 26 10 14 1024.0 1023.7 0.0
26/07:00pm 20.2 20.3 16.4 79 2.3 SE 11 17 6 9 1024.0 1023.7 0.0
26/06:30pm 20.3 20.8 16.5 79 2.3 SSE 9 13 5 7 1023.9 1023.6 0.0
26/06:00pm 20.2 20.7 16.6 80 2.2 SSE 9 13 5 7 1023.5 1023.2 0.0
26/05:30pm 20.2 21.1 16.6 80 2.2 SE 7 9 4 5 1023.1 1022.8 0.0
26/05:00pm 20.4 21.3 16.6 79 2.3 E 7 11 4 6 1023.2 1022.9 0.0
26/04:30pm 20.5 21.0 16.5 78 2.4 E 9 13 5 7 1023.0 1022.7 0.0
26/04:00pm 20.5 20.2 16.5 78 2.4 ENE 13 17 7 9 1022.7 1022.4 0.0
26/03:30pm 20.8 20.3 16.8 78 2.4 ENE 15 20 8 11 1022.6 1022.3 0.0
26/03:00pm 20.7 19.3 17.1 80 2.2 ENE 20 30 11 16 1022.8 1022.5 0.0
26/02:30pm 21.1 18.6 16.1 73 3.0 E 24 30 13 16 1023.0 1022.7 0.0

Other Formats:

Comma delimited format used in spreadsheet applications
http://www.bom.gov.au/fwo/IDQ60801/IDQ60801.94380.axf

JavaScript Object Notation format (JSON) in row-major order
http://www.bom.gov.au/fwo/IDQ60801/IDQ60801.94380.json